createdAt,value
2022-11-12T00:02:42.890Z,5.28
2022-11-12T00:05:28.427Z,5.24
2022-11-12T00:08:13.665Z,5.36
2022-11-12T00:10:58.815Z,5.34
2022-11-12T00:13:44.065Z,5.48
2022-11-12T00:16:29.396Z,5.34
2022-11-12T00:19:14.638Z,5.29
2022-11-12T00:22:00.025Z,5.23
2022-11-12T00:24:45.571Z,5.18
2022-11-12T00:27:34.325Z,5.20
2022-11-12T00:30:19.591Z,5.21
2022-11-12T00:33:05.315Z,5.17
2022-11-12T00:35:50.544Z,5.24
2022-11-12T00:38:35.976Z,5.27
2022-11-12T00:41:21.289Z,5.03
2022-11-12T00:44:06.502Z,4.97
2022-11-12T00:46:51.939Z,4.95
2022-11-12T00:49:37.043Z,5.02
2022-11-12T00:52:22.287Z,5.02
2022-11-12T00:55:07.734Z,5.00
2022-11-12T00:57:52.810Z,5.05
2022-11-12T01:00:38.211Z,5.08
2022-11-12T01:03:23.691Z,5.13
2022-11-12T01:06:15.401Z,5.04
2022-11-12T01:09:00.543Z,4.87
2022-11-12T01:11:45.867Z,4.87
2022-11-12T01:14:31.097Z,4.78
2022-11-12T01:17:16.177Z,4.85
2022-11-12T01:20:01.876Z,4.79
2022-11-12T01:22:47.305Z,4.89
2022-11-12T01:25:32.390Z,4.93
2022-11-12T01:28:17.662Z,4.99
2022-11-12T01:31:20.794Z,5.05
2022-11-12T01:34:08.809Z,4.84
2022-11-12T01:36:54.397Z,4.91
2022-11-12T01:39:39.537Z,4.84
2022-11-12T01:42:29.427Z,4.86
2022-11-12T01:45:15.873Z,4.82
2022-11-12T01:48:01.536Z,4.67
2022-11-12T01:50:46.978Z,4.33
2022-11-12T01:53:36.803Z,4.53
2022-11-12T01:56:23.774Z,4.52
2022-11-12T01:59:15.295Z,4.52
2022-11-12T02:02:00.431Z,4.47
2022-11-12T02:04:46.871Z,4.51
2022-11-12T02:07:33.088Z,4.53
2022-11-12T02:10:19.811Z,4.47
2022-11-12T02:13:24.383Z,4.44
2022-11-12T02:16:10.830Z,4.51
2022-11-12T02:18:55.912Z,4.45
2022-11-12T02:21:41.972Z,4.51
2022-11-12T02:24:27.109Z,4.56
2022-11-12T02:27:12.473Z,4.40
2022-11-12T02:29:57.953Z,4.43
2022-11-12T02:32:43.329Z,4.42
2022-11-12T02:35:28.731Z,4.45
2022-11-12T02:38:13.973Z,4.60
2022-11-12T02:40:59.280Z,4.60
2022-11-12T02:43:44.863Z,4.55
2022-11-12T02:46:30.054Z,4.40
2022-11-12T02:49:15.417Z,4.26
2022-11-12T02:52:00.667Z,4.36
2022-11-12T02:54:45.914Z,4.25
2022-11-12T02:57:31.128Z,4.24
2022-11-12T03:00:18.169Z,4.26
2022-11-12T03:03:03.382Z,4.32
2022-11-12T03:05:56.905Z,4.39
2022-11-12T03:08:41.786Z,4.40
2022-11-12T03:11:27.636Z,4.37
2022-11-12T03:14:12.971Z,4.37
2022-11-12T03:16:58.203Z,4.45
2022-11-12T03:19:43.582Z,4.48
2022-11-12T03:22:28.836Z,4.50
2022-11-12T03:25:14.088Z,4.62
2022-11-12T03:28:09.336Z,4.67
2022-11-12T03:30:59.009Z,4.56
2022-11-12T03:33:44.011Z,4.53
2022-11-12T03:36:29.211Z,4.47
2022-11-12T03:39:14.697Z,4.14
2022-11-12T03:41:59.838Z,4.25
2022-11-12T03:44:45.108Z,4.23
2022-11-12T03:47:30.034Z,3.84
2022-11-12T03:50:17.034Z,3.88
2022-11-12T03:53:02.085Z,3.85
2022-11-12T03:55:47.374Z,3.95
2022-11-12T03:58:32.623Z,3.99
2022-11-12T04:01:17.721Z,4.16
2022-11-12T04:04:03.000Z,3.95
2022-11-12T04:07:06.918Z,3.84
2022-11-12T04:09:52.044Z,3.81
2022-11-12T04:12:55.591Z,3.85
2022-11-12T04:15:40.973Z,3.83
2022-11-12T04:18:55.494Z,3.76
2022-11-12T04:21:56.454Z,3.83
2022-11-12T04:25:01.708Z,3.86
2022-11-12T04:27:47.091Z,3.77
2022-11-12T04:30:32.355Z,3.87
2022-11-12T04:33:17.415Z,3.80
2022-11-12T04:36:02.806Z,3.93
2022-11-12T04:38:47.973Z,3.51
2022-11-12T04:41:51.780Z,3.49
2022-11-12T04:44:55.592Z,3.63
2022-11-12T04:47:43.882Z,3.61
2022-11-12T04:50:29.196Z,3.28
2022-11-12T04:53:15.088Z,3.39
2022-11-12T04:55:59.971Z,3.38
2022-11-12T04:58:45.192Z,3.38
2022-11-12T05:01:30.465Z,3.38
2022-11-12T05:04:16.023Z,3.34
2022-11-12T05:07:01.506Z,3.55
2022-11-12T05:09:46.505Z,3.51
2022-11-12T05:12:31.720Z,3.52
2022-11-12T05:15:16.830Z,3.60
2022-11-12T05:18:02.184Z,3.54
2022-11-12T05:20:47.337Z,3.52
2022-11-12T05:23:32.531Z,3.55
2022-11-12T05:26:17.869Z,3.60
2022-11-12T05:29:08.465Z,3.60
2022-11-12T05:31:54.426Z,3.68
2022-11-12T05:34:39.485Z,3.66
2022-11-12T05:37:24.852Z,3.65
2022-11-12T05:40:10.384Z,3.68
2022-11-12T05:42:55.340Z,3.66
2022-11-12T05:45:43.565Z,3.61
2022-11-12T05:48:29.379Z,3.45
2022-11-12T05:51:14.860Z,3.47
2022-11-12T05:54:00.546Z,3.44
2022-11-12T05:56:45.929Z,3.47
2022-11-12T05:59:30.921Z,3.51
2022-11-12T06:02:16.213Z,3.53
2022-11-12T06:05:01.237Z,3.43
2022-11-12T06:07:46.471Z,3.44
2022-11-12T06:10:33.184Z,3.29
2022-11-12T06:13:18.770Z,3.41
2022-11-12T06:16:04.303Z,3.37
2022-11-12T06:18:49.506Z,3.27
2022-11-12T06:21:34.828Z,3.20
2022-11-12T06:24:20.546Z,3.25
2022-11-12T06:27:05.787Z,3.34
2022-11-12T06:29:51.312Z,3.33
2022-11-12T06:32:36.809Z,3.36
2022-11-12T06:35:21.655Z,3.40
2022-11-12T06:38:06.747Z,3.43
2022-11-12T06:40:51.981Z,3.38
2022-11-12T06:43:37.621Z,3.43
2022-11-12T06:46:23.075Z,3.41
2022-11-12T06:49:08.181Z,3.30
2022-11-12T06:51:53.605Z,3.32
2022-11-12T06:54:38.984Z,3.29
2022-11-12T06:57:24.271Z,3.14
2022-11-12T07:00:11.776Z,3.21
2022-11-12T07:02:56.784Z,3.27
2022-11-12T07:05:41.943Z,3.43
2022-11-12T07:08:27.422Z,3.44
2022-11-12T07:11:13.436Z,3.36
2022-11-12T07:13:58.759Z,3.35
2022-11-12T07:16:44.172Z,3.31
2022-11-12T07:19:29.540Z,3.32
2022-11-12T07:22:14.906Z,3.44
2022-11-12T07:25:00.254Z,3.43
2022-11-12T07:27:45.437Z,3.43
2022-11-12T07:30:30.725Z,3.46
2022-11-12T07:33:15.770Z,3.56
2022-11-12T07:36:03.925Z,3.69
2022-11-12T07:38:52.383Z,3.70
2022-11-12T07:41:37.247Z,3.68
2022-11-12T07:44:22.279Z,3.75
2022-11-12T07:47:07.682Z,3.82
2022-11-12T07:49:52.854Z,3.91
2022-11-12T07:52:38.236Z,3.93
2022-11-12T07:55:23.384Z,3.94
2022-11-12T07:58:08.718Z,4.03
2022-11-12T08:00:54.129Z,4.10
2022-11-12T08:03:39.049Z,4.20
2022-11-12T08:06:24.352Z,4.22
2022-11-12T08:09:10.172Z,4.33
2022-11-12T08:11:55.084Z,4.39
2022-11-12T08:14:48.199Z,4.51
2022-11-12T08:17:37.777Z,4.66
2022-11-12T08:20:23.204Z,4.70
2022-11-12T08:23:09.480Z,4.85
2022-11-12T08:26:01.109Z,4.99
2022-11-12T08:28:46.917Z,5.07
2022-11-12T08:31:32.287Z,5.18
2022-11-12T08:34:22.472Z,5.27
2022-11-12T08:37:08.219Z,5.33
2022-11-12T08:39:53.539Z,5.44
2022-11-12T08:42:39.099Z,5.61
2022-11-12T08:45:24.574Z,5.63
2022-11-12T08:48:14.425Z,5.65
2022-11-12T08:51:02.488Z,5.81
2022-11-12T08:53:47.970Z,5.81
2022-11-12T08:56:34.051Z,6.00
2022-11-12T08:59:18.967Z,6.18
2022-11-12T09:02:04.019Z,6.25
2022-11-12T09:04:49.315Z,6.25
2022-11-12T09:07:49.311Z,6.18
2022-11-12T09:10:36.473Z,6.14
2022-11-12T09:13:22.048Z,6.26
2022-11-12T09:16:09.051Z,6.31
2022-11-12T09:18:54.025Z,6.38
2022-11-12T09:21:39.736Z,6.40
2022-11-12T09:24:24.912Z,6.33
2022-11-12T09:27:10.315Z,6.37
2022-11-12T09:29:55.793Z,6.37
2022-11-12T09:32:41.207Z,6.26
2022-11-12T09:35:26.699Z,6.29
2022-11-12T09:38:12.238Z,6.29
2022-11-12T09:41:09.538Z,6.53
2022-11-12T09:44:01.228Z,6.47
2022-11-12T09:47:02.522Z,6.56
2022-11-12T09:50:22.770Z,6.78
2022-11-12T09:53:37.083Z,7.07
2022-11-12T09:56:26.144Z,7.48
2022-11-12T09:59:13.186Z,7.77
2022-11-12T10:02:16.942Z,8.17
2022-11-12T10:05:32.383Z,8.55
2022-11-12T10:08:20.197Z,8.82
2022-11-12T10:11:20.496Z,9.08
2022-11-12T10:14:34.570Z,9.36
2022-11-12T10:17:41.807Z,9.46
2022-11-12T10:20:38.764Z,9.75
2022-11-12T10:23:36.868Z,9.86
2022-11-12T10:26:24.705Z,10.11
2022-11-12T10:29:32.485Z,10.44
2022-11-12T10:32:17.732Z,10.62
2022-11-12T10:35:03.761Z,10.65
2022-11-12T10:38:19.859Z,10.98
2022-11-12T10:41:32.368Z,11.20
2022-11-12T10:44:26.218Z,11.31
2022-11-12T10:47:32.477Z,11.48
2022-11-12T10:50:21.973Z,11.53
2022-11-12T10:53:10.260Z,11.67
2022-11-12T10:56:04.013Z,11.87
2022-11-12T10:59:14.799Z,12.12
2022-11-12T11:02:01.261Z,12.26
2022-11-12T11:04:46.613Z,12.30
2022-11-12T11:07:31.796Z,12.38
2022-11-12T11:10:46.454Z,12.53
2022-11-12T11:13:31.695Z,12.78
2022-11-12T11:16:28.892Z,13.14
2022-11-12T11:19:13.983Z,13.20
2022-11-12T11:22:13.333Z,13.28
2022-11-12T11:25:10.496Z,13.40
2022-11-12T11:28:14.203Z,13.49
2022-11-12T11:31:07.432Z,13.80
2022-11-12T11:34:15.967Z,14.08
2022-11-12T11:37:06.244Z,14.02
2022-11-12T11:39:55.903Z,14.25
2022-11-12T11:43:03.075Z,14.56
2022-11-12T11:46:00.240Z,14.50
2022-11-12T11:49:24.548Z,14.62
2022-11-12T11:52:18.671Z,14.44
2022-11-12T11:55:09.708Z,14.65
2022-11-12T11:58:40.050Z,14.80
2022-11-12T12:01:56.232Z,14.97
2022-11-12T12:05:05.783Z,14.99
2022-11-12T12:08:06.335Z,15.12
2022-11-12T12:11:12.076Z,15.31
2022-11-12T12:14:09.505Z,15.41
2022-11-12T12:17:26.647Z,15.61
2022-11-12T12:20:22.533Z,15.67
2022-11-12T12:23:30.574Z,15.79
2022-11-12T12:26:32.828Z,15.80
2022-11-12T12:29:42.009Z,15.77
2022-11-12T12:32:32.843Z,15.67
2022-11-12T12:35:31.466Z,15.86
2022-11-12T12:38:38.855Z,16.10
2022-11-12T12:41:32.796Z,16.06
2022-11-12T12:44:18.222Z,16.12
2022-11-12T12:47:04.019Z,15.77
2022-11-12T12:49:51.385Z,15.94
2022-11-12T12:53:05.512Z,16.18
2022-11-12T12:55:54.857Z,16.01
2022-11-12T12:58:40.312Z,16.11
2022-11-12T13:01:32.146Z,16.22
2022-11-12T13:04:17.141Z,16.40
2022-11-12T13:07:05.304Z,16.49
2022-11-12T13:09:52.687Z,16.58
2022-11-12T13:13:15.520Z,16.22
2022-11-12T13:16:02.844Z,15.91
2022-11-12T13:18:50.755Z,16.16
2022-11-12T13:21:35.944Z,16.16
2022-11-12T13:25:04.710Z,16.22
2022-11-12T13:27:49.726Z,16.23
2022-11-12T13:30:35.126Z,16.18
2022-11-12T13:33:30.979Z,16.29
2022-11-12T13:36:27.862Z,16.27
2022-11-12T13:39:17.753Z,16.31
2022-11-12T13:42:31.486Z,16.32
2022-11-12T13:45:19.454Z,16.25
2022-11-12T13:48:15.154Z,16.36
2022-11-12T13:51:12.723Z,16.41
2022-11-12T13:53:58.431Z,16.33
2022-11-12T13:56:43.981Z,16.45
2022-11-12T13:59:29.297Z,16.49
2022-11-12T14:02:26.255Z,16.37
2022-11-12T14:05:17.867Z,16.53
2022-11-12T14:08:30.345Z,16.58
2022-11-12T14:11:36.816Z,16.72
2022-11-12T14:14:40.722Z,16.65
2022-11-12T14:17:52.105Z,16.64
2022-11-12T14:20:41.195Z,16.58
2022-11-12T14:23:26.718Z,16.55
2022-11-12T14:26:13.240Z,16.52
2022-11-12T14:28:59.250Z,16.44
2022-11-12T14:31:44.864Z,16.50
2022-11-12T14:34:33.059Z,16.50
2022-11-12T14:37:39.852Z,16.43
2022-11-12T14:40:29.460Z,16.25
2022-11-12T14:43:27.700Z,16.33
2022-11-12T14:46:29.088Z,16.21
2022-11-12T14:49:22.277Z,16.10
2022-11-12T14:52:13.610Z,15.89
2022-11-12T14:55:09.036Z,15.80
2022-11-12T14:57:58.700Z,15.76
2022-11-12T15:00:45.712Z,15.69
2022-11-12T15:03:32.528Z,15.68
2022-11-12T15:06:29.550Z,15.50
2022-11-12T15:09:18.808Z,15.41
2022-11-12T15:12:09.539Z,15.23
2022-11-12T15:15:08.550Z,15.15
2022-11-12T15:17:59.391Z,15.05
2022-11-12T15:20:45.229Z,14.83
2022-11-12T15:23:30.681Z,14.78
2022-11-12T15:26:33.657Z,14.78
2022-11-12T15:29:27.716Z,14.60
2022-11-12T15:32:14.146Z,14.37
2022-11-12T15:34:59.406Z,14.05
2022-11-12T15:37:44.779Z,13.93
2022-11-12T15:40:32.299Z,13.91
2022-11-12T15:43:21.417Z,13.76
2022-11-12T15:46:17.605Z,13.50
2022-11-12T15:49:02.657Z,13.57
2022-11-12T15:51:48.155Z,13.47
2022-11-12T15:54:36.872Z,13.31
2022-11-12T15:57:29.232Z,13.19
2022-11-12T16:00:19.866Z,13.10
2022-11-12T16:03:13.798Z,13.04
2022-11-12T16:06:02.653Z,12.90
2022-11-12T16:08:52.469Z,12.66
2022-11-12T16:11:37.876Z,12.63
2022-11-12T16:14:25.035Z,12.50
2022-11-12T16:17:16.233Z,12.27
2022-11-12T16:20:01.612Z,12.25
2022-11-12T16:22:47.979Z,12.13
2022-11-12T16:25:36.177Z,11.98
2022-11-12T16:28:21.114Z,11.82
2022-11-12T16:31:06.754Z,11.60
2022-11-12T16:33:52.384Z,11.62
2022-11-12T16:36:39.755Z,11.60
2022-11-12T16:39:25.315Z,11.56
2022-11-12T16:42:10.912Z,11.48
2022-11-12T16:44:55.799Z,11.37
2022-11-12T16:47:47.723Z,11.28
2022-11-12T16:50:33.188Z,11.21
2022-11-12T16:53:18.569Z,11.10
2022-11-12T16:56:04.081Z,10.99
2022-11-12T16:58:49.789Z,11.01
2022-11-12T17:01:35.141Z,10.91
2022-11-12T17:04:20.503Z,10.77
2022-11-12T17:07:05.926Z,10.67
2022-11-12T17:09:52.836Z,10.44
2022-11-12T17:12:38.011Z,10.44
2022-11-12T17:15:23.333Z,10.37
2022-11-12T17:18:09.673Z,10.47
2022-11-12T17:20:55.285Z,10.40
2022-11-12T17:23:42.261Z,10.26
2022-11-12T17:26:29.008Z,10.01
2022-11-12T17:29:14.213Z,10.14
2022-11-12T17:31:59.593Z,9.94
2022-11-12T17:34:44.766Z,10.07
2022-11-12T17:37:29.807Z,10.04
2022-11-12T17:40:15.602Z,9.88
2022-11-12T17:43:00.861Z,9.81
2022-11-12T17:45:53.664Z,9.82
2022-11-12T17:48:39.321Z,9.63
2022-11-12T17:51:26.776Z,9.74
2022-11-12T17:54:12.554Z,9.66
2022-11-12T17:56:58.042Z,9.51
2022-11-12T17:59:43.048Z,9.57
2022-11-12T18:02:28.308Z,9.49
2022-11-12T18:05:13.561Z,9.24
2022-11-12T18:07:59.066Z,9.39
2022-11-12T18:10:45.547Z,9.32
2022-11-12T18:13:31.088Z,9.25
2022-11-12T18:16:20.649Z,9.16
2022-11-12T18:19:05.963Z,9.00
2022-11-12T18:21:52.851Z,9.12
2022-11-12T18:24:37.953Z,9.02
2022-11-12T18:27:23.213Z,8.96
2022-11-12T18:30:08.944Z,8.99
2022-11-12T18:32:54.107Z,8.95
2022-11-12T18:35:39.353Z,8.93
2022-11-12T18:38:24.653Z,8.96
2022-11-12T18:41:12.139Z,8.89
2022-11-12T18:43:57.659Z,8.63
2022-11-12T18:46:43.252Z,8.56
2022-11-12T18:49:28.388Z,8.60
2022-11-12T18:52:13.855Z,8.63
2022-11-12T18:54:59.111Z,8.71
2022-11-12T18:57:44.453Z,8.84
2022-11-12T19:00:29.721Z,8.85
2022-11-12T19:03:14.936Z,8.97
2022-11-12T19:06:01.771Z,8.98
2022-11-12T19:08:47.842Z,8.84
2022-11-12T19:11:33.383Z,8.70
2022-11-12T19:14:18.759Z,8.80
2022-11-12T19:17:04.104Z,8.72
2022-11-12T19:19:49.572Z,8.68
2022-11-12T19:22:35.229Z,8.88
2022-11-12T19:25:20.686Z,8.99
2022-11-12T19:28:05.929Z,9.06
2022-11-12T19:30:54.814Z,8.86
2022-11-12T19:33:40.232Z,8.71
2022-11-12T19:36:26.267Z,8.66
2022-11-12T19:39:11.600Z,8.56
2022-11-12T19:41:57.128Z,8.60
2022-11-12T19:44:42.379Z,8.40
2022-11-12T19:47:27.662Z,8.51
2022-11-12T19:50:12.610Z,8.49
2022-11-12T19:52:58.059Z,8.56
2022-11-12T19:55:44.200Z,8.54
2022-11-12T19:58:31.780Z,8.75
2022-11-12T20:01:18.907Z,8.63
2022-11-12T20:04:04.490Z,8.55
2022-11-12T20:06:49.783Z,8.36
2022-11-12T20:09:35.018Z,8.45
2022-11-12T20:12:20.246Z,8.55
2022-11-12T20:15:06.378Z,8.53
2022-11-12T20:17:51.635Z,8.50
2022-11-12T20:20:37.079Z,8.49
2022-11-12T20:23:27.027Z,8.44
2022-11-12T20:26:15.001Z,8.51
2022-11-12T20:29:00.187Z,8.32
2022-11-12T20:31:45.765Z,8.38
2022-11-12T20:34:30.998Z,8.36
2022-11-12T20:37:16.408Z,8.33
2022-11-12T20:40:02.278Z,8.29
2022-11-12T20:42:47.666Z,8.21
2022-11-12T20:45:33.753Z,8.20
2022-11-12T20:48:20.214Z,8.16
2022-11-12T20:51:23.331Z,8.22
2022-11-12T20:54:10.603Z,8.20
2022-11-12T20:56:56.151Z,8.09
2022-11-12T20:59:41.244Z,8.01
2022-11-12T21:02:26.593Z,7.92
2022-11-12T21:05:12.354Z,8.00
2022-11-12T21:07:57.453Z,7.85
2022-11-12T21:10:42.941Z,7.82
2022-11-12T21:13:28.374Z,7.78
2022-11-12T21:16:14.604Z,7.67
2022-11-12T21:19:01.489Z,7.70
2022-11-12T21:21:46.598Z,7.67
2022-11-12T21:24:31.931Z,7.60
2022-11-12T21:27:17.135Z,7.59
2022-11-12T21:30:02.530Z,7.55
2022-11-12T21:32:48.903Z,7.54
2022-11-12T21:35:34.264Z,7.57
2022-11-12T21:38:19.311Z,7.56
2022-11-12T21:41:10.410Z,7.59
2022-11-12T21:43:55.623Z,7.43
2022-11-12T21:46:40.752Z,7.49
2022-11-12T21:49:26.083Z,7.48
2022-11-12T21:52:12.849Z,7.42
2022-11-12T21:54:57.872Z,7.44
2022-11-12T21:57:43.207Z,7.39
2022-11-12T22:00:41.715Z,7.34
2022-11-12T22:03:30.910Z,7.37
2022-11-12T22:06:17.224Z,7.24
2022-11-12T22:09:03.105Z,7.17
2022-11-12T22:11:48.423Z,6.66
2022-11-12T22:14:33.730Z,6.88
2022-11-12T22:17:18.930Z,6.88
2022-11-12T22:20:05.080Z,7.01
2022-11-12T22:22:51.670Z,6.99
2022-11-12T22:25:36.636Z,6.97
2022-11-12T22:28:22.128Z,6.99
2022-11-12T22:31:13.195Z,7.02
2022-11-12T22:34:00.319Z,6.97
2022-11-12T22:36:45.691Z,6.91
2022-11-12T22:39:31.074Z,6.74
2022-11-12T22:42:16.321Z,6.82
2022-11-12T22:45:01.640Z,6.76
2022-11-12T22:47:46.840Z,6.70
2022-11-12T22:50:32.251Z,6.77
2022-11-12T22:53:17.637Z,6.84
2022-11-12T22:56:05.102Z,6.69
2022-11-12T22:58:51.316Z,6.60
2022-11-12T23:01:36.573Z,6.63
2022-11-12T23:04:21.993Z,6.48
2022-11-12T23:07:07.563Z,6.61
2022-11-12T23:09:52.683Z,6.45
2022-11-12T23:12:38.036Z,6.43
2022-11-12T23:15:22.899Z,6.38
2022-11-12T23:18:08.335Z,6.40
2022-11-12T23:20:53.645Z,6.37
2022-11-12T23:23:38.986Z,6.26
2022-11-12T23:26:26.116Z,6.30
2022-11-12T23:29:11.981Z,6.33
2022-11-12T23:31:57.283Z,6.27
2022-11-12T23:34:42.656Z,6.26
2022-11-12T23:37:27.832Z,6.26
2022-11-12T23:40:13.345Z,6.27
2022-11-12T23:42:58.444Z,6.30
2022-11-12T23:45:43.671Z,6.27
2022-11-12T23:48:29.414Z,6.26
2022-11-12T23:51:20.126Z,6.25
2022-11-12T23:54:05.607Z,6.25
2022-11-12T23:56:50.924Z,6.25
2022-11-12T23:59:36.183Z,6.34
